sensor_id;sensor_type;location;lat;lon;timestamp;pressure;altitude;pressure_sealevel;temperature;humidity
75745;BME280;64359;51.366;-0.222;2023-07-28T00:00:37;100229.73;;;23.56;62.54
75745;BME280;64359;51.366;-0.222;2023-07-28T00:01:44;100230.02;;;23.56;62.43
75745;BME280;64359;51.366;-0.222;2023-07-28T00:02:48;100227.96;;;23.57;62.47
75745;BME280;64359;51.366;-0.222;2023-07-28T00:03:53;100223.05;;;23.54;62.49
75745;BME280;64359;51.366;-0.222;2023-07-28T00:04:58;100227.97;;;23.57;62.47
75745;BME280;64359;51.366;-0.222;2023-07-28T00:06:03;100226.75;;;23.56;62.42
75745;BME280;64359;51.366;-0.222;2023-07-28T00:07:08;100228.73;;;23.57;62.68
75745;BME280;64359;51.366;-0.222;2023-07-28T00:08:13;100228.23;;;23.56;62.54
75745;BME280;64359;51.366;-0.222;2023-07-28T00:09:17;100230.27;;;23.56;62.59
75745;BME280;64359;51.366;-0.222;2023-07-28T00:10:22;100229.67;;;23.55;62.52
75745;BME280;64359;51.366;-0.222;2023-07-28T00:11:27;100229.60;;;23.54;62.48
75745;BME280;64359;51.366;-0.222;2023-07-28T00:12:31;100230.09;;;23.54;62.39
75745;BME280;64359;51.366;-0.222;2023-07-28T00:13:36;100228.21;;;23.54;62.43
75745;BME280;64359;51.366;-0.222;2023-07-28T00:14:41;100228.52;;;23.53;62.32
75745;BME280;64359;51.366;-0.222;2023-07-28T00:15:45;100226.76;;;23.52;62.40
75745;BME280;64359;51.366;-0.222;2023-07-28T00:16:49;100229.60;;;23.53;62.51
75745;BME280;64359;51.366;-0.222;2023-07-28T00:17:54;100223.16;;;23.51;62.40
75745;BME280;64359;51.366;-0.222;2023-07-28T00:18:59;100226.01;;;23.53;62.57
75745;BME280;64359;51.366;-0.222;2023-07-28T00:20:04;100220.44;;;23.51;62.49
75745;BME280;64359;51.366;-0.222;2023-07-28T00:21:09;100226.70;;;23.54;62.48
75745;BME280;64359;51.366;-0.222;2023-07-28T00:22:13;100226.16;;;23.54;62.43
75745;BME280;64359;51.366;-0.222;2023-07-28T00:23:20;100225.79;;;23.54;62.44
75745;BME280;64359;51.366;-0.222;2023-07-28T00:24:24;100225.33;;;23.53;62.38
75745;BME280;64359;51.366;-0.222;2023-07-28T00:25:29;100222.86;;;23.53;62.45
75745;BME280;64359;51.366;-0.222;2023-07-28T00:26:33;100221.54;;;23.52;62.45
75745;BME280;64359;51.366;-0.222;2023-07-28T00:27:38;100222.66;;;23.52;62.49
75745;BME280;64359;51.366;-0.222;2023-07-28T00:28:42;100223.13;;;23.51;62.37
75745;BME280;64359;51.366;-0.222;2023-07-28T00:29:46;100221.92;;;23.51;62.42
75745;BME280;64359;51.366;-0.222;2023-07-28T00:30:51;100223.43;;;23.50;62.43
75745;BME280;64359;51.366;-0.222;2023-07-28T00:31:56;100223.01;;;23.49;62.41
75745;BME280;64359;51.366;-0.222;2023-07-28T00:33:05;100226.43;;;23.49;62.33
75745;BME280;64359;51.366;-0.222;2023-07-28T00:34:10;100225.86;;;23.48;62.34
75745;BME280;64359;51.366;-0.222;2023-07-28T00:35:15;100222.95;;;23.48;62.48
75745;BME280;64359;51.366;-0.222;2023-07-28T00:36:20;100222.63;;;23.46;62.38
75745;BME280;64359;51.366;-0.222;2023-07-28T00:37:24;100220.45;;;23.46;62.52
75745;BME280;64359;51.366;-0.222;2023-07-28T00:38:28;100218.70;;;23.45;62.54
75745;BME280;64359;51.366;-0.222;2023-07-28T00:39:33;100218.66;;;23.43;62.58
75745;BME280;64359;51.366;-0.222;2023-07-28T00:40:37;100216.29;;;23.43;62.65
75745;BME280;64359;51.366;-0.222;2023-07-28T00:41:42;100217.80;;;23.43;62.61
75745;BME280;64359;51.366;-0.222;2023-07-28T00:42:46;100216.41;;;23.43;62.64
75745;BME280;64359;51.366;-0.222;2023-07-28T00:43:51;100215.66;;;23.43;62.66
75745;BME280;64359;51.366;-0.222;2023-07-28T00:44:55;100217.24;;;23.43;62.60
75745;BME280;64359;51.366;-0.222;2023-07-28T00:46:00;100216.20;;;23.43;62.78
75745;BME280;64359;51.366;-0.222;2023-07-28T00:47:05;100215.95;;;23.43;62.49
75745;BME280;64359;51.366;-0.222;2023-07-28T00:48:12;100219.55;;;23.43;62.58
75745;BME280;64359;51.366;-0.222;2023-07-28T00:49:17;100224.14;;;23.44;62.74
75745;BME280;64359;51.366;-0.222;2023-07-28T00:50:22;100218.97;;;23.42;62.56
75745;BME280;64359;51.366;-0.222;2023-07-28T00:51:27;100222.73;;;23.44;62.53
75745;BME280;64359;51.366;-0.222;2023-07-28T00:52:32;100226.44;;;23.45;62.62
75745;BME280;64359;51.366;-0.222;2023-07-28T00:53:36;100226.18;;;23.45;62.54
75745;BME280;64359;51.366;-0.222;2023-07-28T00:54:41;100229.48;;;23.45;62.62
75745;BME280;64359;51.366;-0.222;2023-07-28T00:55:45;100227.40;;;23.45;62.39
75745;BME280;64359;51.366;-0.222;2023-07-28T00:56:49;100229.73;;;23.46;62.44
75745;BME280;64359;51.366;-0.222;2023-07-28T00:57:54;100227.06;;;23.45;62.27
75745;BME280;64359;51.366;-0.222;2023-07-28T00:58:59;100228.91;;;23.45;62.44
75745;BME280;64359;51.366;-0.222;2023-07-28T01:00:05;100225.44;;;23.43;62.42
75745;BME280;64359;51.366;-0.222;2023-07-28T01:01:09;100226.63;;;23.42;62.36
75745;BME280;64359;51.366;-0.222;2023-07-28T01:02:14;100225.29;;;23.43;62.46
75745;BME280;64359;51.366;-0.222;2023-07-28T01:03:20;100227.98;;;23.44;62.38
75745;BME280;64359;51.366;-0.222;2023-07-28T01:04:25;100224.33;;;23.40;62.32
75745;BME280;64359;51.366;-0.222;2023-07-28T01:05:33;100227.11;;;23.42;62.57
75745;BME280;64359;51.366;-0.222;2023-07-28T01:06:50;100226.27;;;23.42;62.52
75745;BME280;64359;51.366;-0.222;2023-07-28T01:08:05;100227.69;;;23.41;62.49
75745;BME280;64359;51.366;-0.222;2023-07-28T01:09:15;100230.17;;;23.40;62.58
75745;BME280;64359;51.366;-0.222;2023-07-28T01:10:24;100230.84;;;23.39;62.51
75745;BME280;64359;51.366;-0.222;2023-07-28T01:11:31;100224.21;;;23.36;62.47
75745;BME280;64359;51.366;-0.222;2023-07-28T01:12:35;100224.77;;;23.36;62.44
75745;BME280;64359;51.366;-0.222;2023-07-28T01:13:40;100229.99;;;23.40;62.57
75745;BME280;64359;51.366;-0.222;2023-07-28T01:14:45;100229.28;;;23.40;62.55
75745;BME280;64359;51.366;-0.222;2023-07-28T01:15:49;100223.64;;;23.40;62.48
75745;BME280;64359;51.366;-0.222;2023-07-28T01:16:53;100221.61;;;23.37;62.47
75745;BME280;64359;51.366;-0.222;2023-07-28T01:17:58;100227.69;;;23.41;62.44
75745;BME280;64359;51.366;-0.222;2023-07-28T01:19:02;100226.23;;;23.41;62.32
75745;BME280;64359;51.366;-0.222;2023-07-28T01:20:08;100227.52;;;23.41;62.62
75745;BME280;64359;51.366;-0.222;2023-07-28T01:21:20;100229.15;;;23.41;62.35
75745;BME280;64359;51.366;-0.222;2023-07-28T01:22:51;100228.27;;;23.41;62.47
75745;BME280;64359;51.366;-0.222;2023-07-28T01:24:09;100229.92;;;23.39;62.85
75745;BME280;64359;51.366;-0.222;2023-07-28T01:25:23;100231.77;;;23.39;62.74
75745;BME280;64359;51.366;-0.222;2023-07-28T01:26:36;100232.10;;;23.38;62.66
75745;BME280;64359;51.366;-0.222;2023-07-28T01:27:41;100226.54;;;23.38;62.58
75745;BME280;64359;51.366;-0.222;2023-07-28T01:28:46;100233.61;;;23.38;62.51
75745;BME280;64359;51.366;-0.222;2023-07-28T01:29:52;100228.23;;;23.34;62.52
75745;BME280;64359;51.366;-0.222;2023-07-28T01:30:57;100233.24;;;23.36;62.77
75745;BME280;64359;51.366;-0.222;2023-07-28T01:32:02;100228.25;;;23.33;62.66
75745;BME280;64359;51.366;-0.222;2023-07-28T01:33:09;100231.79;;;23.35;62.66
75745;BME280;64359;51.366;-0.222;2023-07-28T01:34:13;100234.89;;;23.35;62.80
75745;BME280;64359;51.366;-0.222;2023-07-28T01:35:18;100232.14;;;23.33;62.74
75745;BME280;64359;51.366;-0.222;2023-07-28T01:36:22;100233.52;;;23.34;62.70
75745;BME280;64359;51.366;-0.222;2023-07-28T01:37:26;100234.88;;;23.35;62.69
75745;BME280;64359;51.366;-0.222;2023-07-28T01:38:31;100234.63;;;23.35;62.67
75745;BME280;64359;51.366;-0.222;2023-07-28T01:39:36;100231.70;;;23.36;62.78
75745;BME280;64359;51.366;-0.222;2023-07-28T01:40:40;100231.45;;;23.36;62.77
75745;BME280;64359;51.366;-0.222;2023-07-28T01:41:44;100231.95;;;23.37;62.68
75745;BME280;64359;51.366;-0.222;2023-07-28T01:42:49;100232.40;;;23.37;62.74
75745;BME280;64359;51.366;-0.222;2023-07-28T01:43:53;100233.65;;;23.37;62.66
75745;BME280;64359;51.366;-0.222;2023-07-28T01:44:58;100234.11;;;23.38;62.83
75745;BME280;64359;51.366;-0.222;2023-07-28T01:46:03;100234.27;;;23.36;62.67
75745;BME280;64359;51.366;-0.222;2023-07-28T01:47:07;100235.20;;;23.38;62.57
75745;BME280;64359;51.366;-0.222;2023-07-28T01:48:12;100229.95;;;23.35;62.67
75745;BME280;64359;51.366;-0.222;2023-07-28T01:49:16;100235.58;;;23.38;62.58
75745;BME280;64359;51.366;-0.222;2023-07-28T01:50:20;100235.99;;;23.37;62.54
75745;BME280;64359;51.366;-0.222;2023-07-28T01:51:25;100233.86;;;23.37;62.51
75745;BME280;64359;51.366;-0.222;2023-07-28T01:52:29;100233.63;;;23.36;62.56
75745;BME280;64359;51.366;-0.222;2023-07-28T01:53:33;100231.30;;;23.33;62.73
75745;BME280;64359;51.366;-0.222;2023-07-28T01:54:38;100235.92;;;23.37;62.49
75745;BME280;64359;51.366;-0.222;2023-07-28T01:55:42;100232.59;;;23.34;62.58
75745;BME280;64359;51.366;-0.222;2023-07-28T01:56:46;100235.54;;;23.37;62.58
75745;BME280;64359;51.366;-0.222;2023-07-28T01:57:56;100236.13;;;23.36;62.49
75745;BME280;64359;51.366;-0.222;2023-07-28T01:59:01;100235.77;;;23.35;62.74
75745;BME280;64359;51.366;-0.222;2023-07-28T02:00:07;100233.46;;;23.35;62.52
75745;BME280;64359;51.366;-0.222;2023-07-28T02:01:13;100233.20;;;23.35;62.48
75745;BME280;64359;51.366;-0.222;2023-07-28T02:02:17;100231.16;;;23.36;62.54
75745;BME280;64359;51.366;-0.222;2023-07-28T02:03:22;100235.34;;;23.36;62.52
75745;BME280;64359;51.366;-0.222;2023-07-28T02:04:27;100233.45;;;23.36;62.55
75745;BME280;64359;51.366;-0.222;2023-07-28T02:05:31;100235.59;;;23.36;62.49
75745;BME280;64359;51.366;-0.222;2023-07-28T02:06:36;100230.67;;;23.33;62.57
75745;BME280;64359;51.366;-0.222;2023-07-28T02:07:40;100237.75;;;23.38;62.44
75745;BME280;64359;51.366;-0.222;2023-07-28T02:08:44;100237.20;;;23.38;62.53
75745;BME280;64359;51.366;-0.222;2023-07-28T02:09:49;100231.42;;;23.34;62.41
75745;BME280;64359;51.366;-0.222;2023-07-28T02:10:54;100238.88;;;23.39;62.33
75745;BME280;64359;51.366;-0.222;2023-07-28T02:11:58;100236.36;;;23.39;62.20
75745;BME280;64359;51.366;-0.222;2023-07-28T02:13:03;100236.49;;;23.38;62.42
75745;BME280;64359;51.366;-0.222;2023-07-28T02:14:07;100235.90;;;23.38;62.15
75745;BME280;64359;51.366;-0.222;2023-07-28T02:15:13;100235.78;;;23.38;62.31
75745;BME280;64359;51.366;-0.222;2023-07-28T02:16:17;100234.50;;;23.36;62.24
75745;BME280;64359;51.366;-0.222;2023-07-28T02:17:22;100233.52;;;23.37;62.31
75745;BME280;64359;51.366;-0.222;2023-07-28T02:18:27;100230.36;;;23.36;62.29
75745;BME280;64359;51.366;-0.222;2023-07-28T02:19:32;100231.33;;;23.36;62.42
75745;BME280;64359;51.366;-0.222;2023-07-28T02:20:36;100229.62;;;23.35;62.38
75745;BME280;64359;51.366;-0.222;2023-07-28T02:21:42;100228.61;;;23.35;62.13
75745;BME280;64359;51.366;-0.222;2023-07-28T02:22:46;100227.18;;;23.34;62.16
75745;BME280;64359;51.366;-0.222;2023-07-28T02:23:51;100227.29;;;23.32;62.33
75745;BME280;64359;51.366;-0.222;2023-07-28T02:24:55;100226.91;;;23.32;62.41
75745;BME280;64359;51.366;-0.222;2023-07-28T02:25:59;100230.67;;;23.33;62.42
75745;BME280;64359;51.366;-0.222;2023-07-28T02:27:05;100231.17;;;23.33;62.35
75745;BME280;64359;51.366;-0.222;2023-07-28T02:28:11;100231.39;;;23.33;62.14
75745;BME280;64359;51.366;-0.222;2023-07-28T02:29:15;100230.05;;;23.32;62.19
75745;BME280;64359;51.366;-0.222;2023-07-28T02:30:20;100229.59;;;23.32;62.31
75745;BME280;64359;51.366;-0.222;2023-07-28T02:31:24;100230.39;;;23.31;62.38
75745;BME280;64359;51.366;-0.222;2023-07-28T02:32:30;100229.32;;;23.30;62.33
75745;BME280;64359;51.366;-0.222;2023-07-28T02:33:34;100227.17;;;23.24;62.22
75745;BME280;64359;51.366;-0.222;2023-07-28T02:34:39;100232.77;;;23.28;62.44
75745;BME280;64359;51.366;-0.222;2023-07-28T02:35:44;100227.75;;;23.26;62.32
75745;BME280;64359;51.366;-0.222;2023-07-28T02:36:48;100233.13;;;23.29;62.57
75745;BME280;64359;51.366;-0.222;2023-07-28T02:37:52;100231.36;;;23.30;62.48
75745;BME280;64359;51.366;-0.222;2023-07-28T02:38:57;100233.16;;;23.31;62.46
75745;BME280;64359;51.366;-0.222;2023-07-28T02:40:01;100233.36;;;23.32;62.40
75745;BME280;64359;51.366;-0.222;2023-07-28T02:41:06;100235.65;;;23.32;62.37
75745;BME280;64359;51.366;-0.222;2023-07-28T02:42:11;100235.24;;;23.31;62.11
75745;BME280;64359;51.366;-0.222;2023-07-28T02:43:15;100239.80;;;23.32;62.31
75745;BME280;64359;51.366;-0.222;2023-07-28T02:44:20;100239.46;;;23.32;62.24
75745;BME280;64359;51.366;-0.222;2023-07-28T02:45:24;100241.50;;;23.32;62.20
75745;BME280;64359;51.366;-0.222;2023-07-28T02:46:29;100242.43;;;23.32;62.25
75745;BME280;64359;51.366;-0.222;2023-07-28T02:47:33;100239.46;;;23.31;62.25
75745;BME280;64359;51.366;-0.222;2023-07-28T02:48:37;100239.21;;;23.32;62.17
75745;BME280;64359;51.366;-0.222;2023-07-28T02:49:43;100237.30;;;23.31;62.18
75745;BME280;64359;51.366;-0.222;2023-07-28T02:50:49;100236.52;;;23.30;62.23
75745;BME280;64359;51.366;-0.222;2023-07-28T02:51:54;100240.85;;;23.30;62.21
75745;BME280;64359;51.366;-0.222;2023-07-28T02:52:58;100239.23;;;23.30;62.19
75745;BME280;64359;51.366;-0.222;2023-07-28T02:54:03;100234.00;;;23.30;62.22
75745;BME280;64359;51.366;-0.222;2023-07-28T02:55:09;100234.41;;;23.29;62.26
75745;BME280;64359;51.366;-0.222;2023-07-28T02:56:13;100228.54;;;23.26;62.14
75745;BME280;64359;51.366;-0.222;2023-07-28T02:57:17;100232.63;;;23.29;62.21
75745;BME280;64359;51.366;-0.222;2023-07-28T02:58:22;100233.86;;;23.29;62.10
75745;BME280;64359;51.366;-0.222;2023-07-28T02:59:26;100230.16;;;23.28;62.04
75745;BME280;64359;51.366;-0.222;2023-07-28T03:00:31;100230.83;;;23.28;62.15
75745;BME280;64359;51.366;-0.222;2023-07-28T03:01:35;100228.04;;;23.27;62.23
75745;BME280;64359;51.366;-0.222;2023-07-28T03:02:39;100228.09;;;23.25;62.14
75745;BME280;64359;51.366;-0.222;2023-07-28T03:03:44;100232.44;;;23.25;62.19
75745;BME280;64359;51.366;-0.222;2023-07-28T03:04:50;100232.95;;;23.24;62.11
75745;BME280;64359;51.366;-0.222;2023-07-28T03:05:55;100231.23;;;23.23;62.19
75745;BME280;64359;51.366;-0.222;2023-07-28T03:06:59;100235.04;;;23.23;62.14
75745;BME280;64359;51.366;-0.222;2023-07-28T03:08:04;100230.86;;;23.24;62.33
75745;BME280;64359;51.366;-0.222;2023-07-28T03:09:08;100231.20;;;23.24;62.35
75745;BME280;64359;51.366;-0.222;2023-07-28T03:10:13;100228.05;;;23.24;62.29
75745;BME280;64359;51.366;-0.222;2023-07-28T03:11:19;100222.59;;;23.20;62.34
75745;BME280;64359;51.366;-0.222;2023-07-28T03:12:24;100231.94;;;23.25;62.31
75745;BME280;64359;51.366;-0.222;2023-07-28T03:13:28;100233.02;;;23.25;62.32
75745;BME280;64359;51.366;-0.222;2023-07-28T03:14:32;100234.44;;;23.25;62.15
75745;BME280;64359;51.366;-0.222;2023-07-28T03:15:37;100233.10;;;23.25;62.31
75745;BME280;64359;51.366;-0.222;2023-07-28T03:16:42;100234.48;;;23.25;62.06
75745;BME280;64359;51.366;-0.222;2023-07-28T03:17:47;100234.38;;;23.23;62.11
75745;BME280;64359;51.366;-0.222;2023-07-28T03:18:51;100237.34;;;23.24;62.31
75745;BME280;64359;51.366;-0.222;2023-07-28T03:19:55;100235.37;;;23.24;62.15
75745;BME280;64359;51.366;-0.222;2023-07-28T03:21:00;100242.23;;;23.24;62.14
75745;BME280;64359;51.366;-0.222;2023-07-28T03:22:04;100241.27;;;23.23;62.19
75745;BME280;64359;51.366;-0.222;2023-07-28T03:23:09;100245.83;;;23.23;62.25
75745;BME280;64359;51.366;-0.222;2023-07-28T03:24:13;100243.17;;;23.21;62.11
75745;BME280;64359;51.366;-0.222;2023-07-28T03:25:19;100235.75;;;23.17;62.24
75745;BME280;64359;51.366;-0.222;2023-07-28T03:26:25;100246.73;;;23.20;61.91
75745;BME280;64359;51.366;-0.222;2023-07-28T03:27:30;100251.11;;;23.20;62.12
75745;BME280;64359;51.366;-0.222;2023-07-28T03:28:34;100252.41;;;23.20;61.93
75745;BME280;64359;51.366;-0.222;2023-07-28T03:29:39;100252.52;;;23.19;62.14
75745;BME280;64359;51.366;-0.222;2023-07-28T03:30:43;100249.66;;;23.15;62.12
75745;BME280;64359;51.366;-0.222;2023-07-28T03:31:48;100253.40;;;23.18;62.05
75745;BME280;64359;51.366;-0.222;2023-07-28T03:32:52;100249.11;;;23.12;62.13
75745;BME280;64359;51.366;-0.222;2023-07-28T03:33:56;100250.25;;;23.12;62.17
75745;BME280;64359;51.366;-0.222;2023-07-28T03:35:01;100257.60;;;23.15;62.19
75745;BME280;64359;51.366;-0.222;2023-07-28T03:36:08;100252.84;;;23.13;62.28
75745;BME280;64359;51.366;-0.222;2023-07-28T03:37:12;100255.84;;;23.13;62.21
75745;BME280;64359;51.366;-0.222;2023-07-28T03:38:17;100257.05;;;23.14;62.22
75745;BME280;64359;51.366;-0.222;2023-07-28T03:39:21;100256.42;;;23.14;62.25
75745;BME280;64359;51.366;-0.222;2023-07-28T03:40:26;100252.96;;;23.15;62.28
75745;BME280;64359;51.366;-0.222;2023-07-28T03:41:30;100249.41;;;23.14;61.97
75745;BME280;64359;51.366;-0.222;2023-07-28T03:42:34;100255.20;;;23.15;62.06
75745;BME280;64359;51.366;-0.222;2023-07-28T03:43:39;100254.82;;;23.17;62.07
75745;BME280;64359;51.366;-0.222;2023-07-28T03:44:44;100254.70;;;23.18;62.00
75745;BME280;64359;51.366;-0.222;2023-07-28T03:45:48;100254.81;;;23.18;61.95
75745;BME280;64359;51.366;-0.222;2023-07-28T03:46:52;100256.46;;;23.19;61.90
75745;BME280;64359;51.366;-0.222;2023-07-28T03:47:57;100254.92;;;23.20;61.91
75745;BME280;64359;51.366;-0.222;2023-07-28T03:49:01;100254.05;;;23.17;62.02
75745;BME280;64359;51.366;-0.222;2023-07-28T03:50:06;100256.46;;;23.21;61.77
75745;BME280;64359;51.366;-0.222;2023-07-28T03:51:10;100255.02;;;23.22;62.04
75745;BME280;64359;51.366;-0.222;2023-07-28T03:52:15;100251.31;;;23.22;61.79
75745;BME280;64359;51.366;-0.222;2023-07-28T03:53:19;100252.85;;;23.23;61.89
75745;BME280;64359;51.366;-0.222;2023-07-28T03:54:24;100254.06;;;23.23;61.65
75745;BME280;64359;51.366;-0.222;2023-07-28T03:55:28;100255.90;;;23.23;61.81
75745;BME280;64359;51.366;-0.222;2023-07-28T03:56:32;100258.33;;;23.24;61.84
75745;BME280;64359;51.366;-0.222;2023-07-28T03:57:37;100258.61;;;23.24;61.86
75745;BME280;64359;51.366;-0.222;2023-07-28T03:58:42;100260.91;;;23.25;61.88
75745;BME280;64359;51.366;-0.222;2023-07-28T03:59:47;100259.73;;;23.25;61.90
75745;BME280;64359;51.366;-0.222;2023-07-28T04:00:51;100260.63;;;23.26;61.86
75745;BME280;64359;51.366;-0.222;2023-07-28T04:01:55;100259.66;;;23.26;61.90
75745;BME280;64359;51.366;-0.222;2023-07-28T04:03:00;100260.32;;;23.26;61.82
75745;BME280;64359;51.366;-0.222;2023-07-28T04:04:05;100256.47;;;23.27;61.83
75745;BME280;64359;51.366;-0.222;2023-07-28T04:05:09;100257.77;;;23.27;61.89
75745;BME280;64359;51.366;-0.222;2023-07-28T04:06:14;100257.09;;;23.29;61.85
75745;BME280;64359;51.366;-0.222;2023-07-28T04:07:19;100254.19;;;23.31;61.79
75745;BME280;64359;51.366;-0.222;2023-07-28T04:08:23;100254.68;;;23.32;61.67
75745;BME280;64359;51.366;-0.222;2023-07-28T04:09:28;100255.77;;;23.34;61.59
75745;BME280;64359;51.366;-0.222;2023-07-28T04:10:32;100255.30;;;23.34;61.77
75745;BME280;64359;51.366;-0.222;2023-07-28T04:11:37;100256.41;;;23.35;61.73
75745;BME280;64359;51.366;-0.222;2023-07-28T04:12:41;100254.48;;;23.36;61.56
75745;BME280;64359;51.366;-0.222;2023-07-28T04:13:45;100251.52;;;23.36;61.55
75745;BME280;64359;51.366;-0.222;2023-07-28T04:14:50;100252.94;;;23.37;61.58
75745;BME280;64359;51.366;-0.222;2023-07-28T04:15:54;100253.27;;;23.37;61.60
75745;BME280;64359;51.366;-0.222;2023-07-28T04:16:59;100254.52;;;23.37;61.44
75745;BME280;64359;51.366;-0.222;2023-07-28T04:18:03;100254.40;;;23.38;61.59
75745;BME280;64359;51.366;-0.222;2023-07-28T04:19:08;100256.36;;;23.38;61.56
75745;BME280;64359;51.366;-0.222;2023-07-28T04:20:13;100255.48;;;23.38;61.38
75745;BME280;64359;51.366;-0.222;2023-07-28T04:21:17;100256.36;;;23.38;61.36
75745;BME280;64359;51.366;-0.222;2023-07-28T04:22:21;100256.14;;;23.38;61.21
75745;BME280;64359;51.366;-0.222;2023-07-28T04:23:26;100258.95;;;23.38;61.50
75745;BME280;64359;51.366;-0.222;2023-07-28T04:24:30;100255.88;;;23.35;61.37
75745;BME280;64359;51.366;-0.222;2023-07-28T04:25:35;100258.48;;;23.38;61.38
75745;BME280;64359;51.366;-0.222;2023-07-28T04:26:39;100259.75;;;23.39;61.47
75745;BME280;64359;51.366;-0.222;2023-07-28T04:27:45;100259.45;;;23.38;61.46
75745;BME280;64359;51.366;-0.222;2023-07-28T04:28:50;100262.92;;;23.38;61.53
75745;BME280;64359;51.366;-0.222;2023-07-28T04:29:54;100264.93;;;23.38;61.47
75745;BME280;64359;51.366;-0.222;2023-07-28T04:30:59;100270.04;;;23.37;61.24
75745;BME280;64359;51.366;-0.222;2023-07-28T04:32:03;100263.33;;;23.34;61.32
75745;BME280;64359;51.366;-0.222;2023-07-28T04:33:08;100273.55;;;23.37;61.29
75745;BME280;64359;51.366;-0.222;2023-07-28T04:34:12;100274.39;;;23.36;61.22
75745;BME280;64359;51.366;-0.222;2023-07-28T04:35:17;100279.08;;;23.36;61.29
75745;BME280;64359;51.366;-0.222;2023-07-28T04:36:21;100278.95;;;23.36;61.38
75745;BME280;64359;51.366;-0.222;2023-07-28T04:37:25;100276.73;;;23.36;61.40
75745;BME280;64359;51.366;-0.222;2023-07-28T04:38:30;100275.61;;;23.37;61.40
75745;BME280;64359;51.366;-0.222;2023-07-28T04:39:34;100281.58;;;23.38;61.38
75745;BME280;64359;51.366;-0.222;2023-07-28T04:40:39;100279.06;;;23.38;61.41
75745;BME280;64359;51.366;-0.222;2023-07-28T04:41:43;100281.48;;;23.38;61.48
75745;BME280;64359;51.366;-0.222;2023-07-28T04:42:47;100282.86;;;23.39;61.22
75745;BME280;64359;51.366;-0.222;2023-07-28T04:43:55;100282.86;;;23.39;61.17
75745;BME280;64359;51.366;-0.222;2023-07-28T04:45:00;100281.07;;;23.39;61.03
75745;BME280;64359;51.366;-0.222;2023-07-28T04:46:04;100283.41;;;23.39;61.12
75745;BME280;64359;51.366;-0.222;2023-07-28T04:47:09;100283.56;;;23.39;61.15
75745;BME280;64359;51.366;-0.222;2023-07-28T04:48:13;100283.58;;;23.39;61.06
75745;BME280;64359;51.366;-0.222;2023-07-28T04:49:18;100285.92;;;23.39;61.06
75745;BME280;64359;51.366;-0.222;2023-07-28T04:50:24;100286.84;;;23.39;61.00
75745;BME280;64359;51.366;-0.222;2023-07-28T04:51:28;100287.09;;;23.38;61.06
75745;BME280;64359;51.366;-0.222;2023-07-28T04:52:33;100286.88;;;23.39;61.08
75745;BME280;64359;51.366;-0.222;2023-07-28T04:53:37;100283.70;;;23.38;61.07
75745;BME280;64359;51.366;-0.222;2023-07-28T04:54:42;100288.39;;;23.38;60.98
75745;BME280;64359;51.366;-0.222;2023-07-28T04:55:46;100284.13;;;23.38;61.19
75745;BME280;64359;51.366;-0.222;2023-07-28T04:56:51;100284.17;;;23.38;61.08
75745;BME280;64359;51.366;-0.222;2023-07-28T04:57:56;100287.19;;;23.37;61.07
75745;BME280;64359;51.366;-0.222;2023-07-28T04:59:00;100286.86;;;23.37;61.06
75745;BME280;64359;51.366;-0.222;2023-07-28T05:00:06;100284.35;;;23.36;61.08
75745;BME280;64359;51.366;-0.222;2023-07-28T05:01:11;100290.91;;;23.36;60.84
75745;BME280;64359;51.366;-0.222;2023-07-28T05:02:16;100285.02;;;23.35;60.86
75745;BME280;64359;51.366;-0.222;2023-07-28T05:03:20;100283.64;;;23.35;60.88
75745;BME280;64359;51.366;-0.222;2023-07-28T05:04:24;100285.52;;;23.34;61.03
75745;BME280;64359;51.366;-0.222;2023-07-28T05:05:30;100284.65;;;23.34;60.97
75745;BME280;64359;51.366;-0.222;2023-07-28T05:06:34;100285.95;;;23.34;60.90
75745;BME280;64359;51.366;-0.222;2023-07-28T05:07:38;100283.23;;;23.34;60.94
75745;BME280;64359;51.366;-0.222;2023-07-28T05:08:43;100279.13;;;23.35;61.17
75745;BME280;64359;51.366;-0.222;2023-07-28T05:09:47;100280.84;;;23.36;61.02
75745;BME280;64359;51.366;-0.222;2023-07-28T05:10:51;100280.20;;;23.36;61.02
75745;BME280;64359;51.366;-0.222;2023-07-28T05:11:56;100280.29;;;23.37;60.95
75745;BME280;64359;51.366;-0.222;2023-07-28T05:13:00;100282.04;;;23.37;60.84
75745;BME280;64359;51.366;-0.222;2023-07-28T05:14:06;100280.15;;;23.38;60.85
75745;BME280;64359;51.366;-0.222;2023-07-28T05:15:13;100282.65;;;23.38;61.04
75745;BME280;64359;51.366;-0.222;2023-07-28T05:16:17;100281.86;;;23.39;60.70
75745;BME280;64359;51.366;-0.222;2023-07-28T05:17:22;100282.41;;;23.38;60.78
75745;BME280;64359;51.366;-0.222;2023-07-28T05:18:26;100281.36;;;23.38;61.01
75745;BME280;64359;51.366;-0.222;2023-07-28T05:19:31;100279.86;;;23.38;60.60
75745;BME280;64359;51.366;-0.222;2023-07-28T05:20:35;100278.64;;;23.38;60.89
75745;BME280;64359;51.366;-0.222;2023-07-28T05:21:40;100280.06;;;23.38;60.78
75745;BME280;64359;51.366;-0.222;2023-07-28T05:22:44;100277.22;;;23.38;60.91
75745;BME280;64359;51.366;-0.222;2023-07-28T05:23:48;100276.39;;;23.37;60.70
75745;BME280;64359;51.366;-0.222;2023-07-28T05:24:52;100277.15;;;23.37;60.78
75745;BME280;64359;51.366;-0.222;2023-07-28T05:25:57;100280.33;;;23.36;60.64
75745;BME280;64359;51.366;-0.222;2023-07-28T05:27:01;100280.54;;;23.36;60.83
75745;BME280;64359;51.366;-0.222;2023-07-28T05:28:05;100280.83;;;23.37;60.89
75745;BME280;64359;51.366;-0.222;2023-07-28T05:29:10;100278.20;;;23.36;60.75
75745;BME280;64359;51.366;-0.222;2023-07-28T05:30:14;100281.34;;;23.36;60.71
75745;BME280;64359;51.366;-0.222;2023-07-28T05:31:18;100283.17;;;23.36;61.01
75745;BME280;64359;51.366;-0.222;2023-07-28T05:32:23;100279.42;;;23.35;60.81
75745;BME280;64359;51.366;-0.222;2023-07-28T05:33:27;100281.80;;;23.35;60.81
75745;BME280;64359;51.366;-0.222;2023-07-28T05:34:31;100281.51;;;23.35;60.86
75745;BME280;64359;51.366;-0.222;2023-07-28T05:35:36;100278.63;;;23.35;60.77